Time;durP1;ratioP1;P1;durP2;ratioP2;P2;SDS_P1;SDS_P2;PMS_P1;PMS_P2;Temp;Humidity;BMP_temperature;BMP_pressure;BME280_temperature;BME280_humidity;BME280_pressure;Samples;Min_cycle;Max_cycle;Signal;HPM_P1;HPM_P2
2022/08/13 00:00:22;;;;;;;;;;;16.60;99.90;;;;;;4149737;28;19932;-55
2022/08/13 00:02:24;;;;;;;;;;;16.60;99.90;;;;;;4149527;28;20129;-56
2022/08/13 00:04:32;;;;;;;;;;;16.60;99.90;;;;;;4149865;28;20016;-55
2022/08/13 00:08:39;;;;;;;;;;;16.60;99.90;;;;;;4149375;28;19921;-56
2022/08/13 00:10:41;;;;;;;;;;;16.60;99.90;;;;;;4149746;28;19976;-55
2022/08/13 00:12:57;;;;;;;;;;;16.60;99.90;;;;;;4149420;28;19960;-56
2022/08/13 00:15:01;;;;;;;;;;;16.60;99.90;;;;;;4149537;28;19922;-54
2022/08/13 00:17:06;;;;;;;;;;;16.40;99.90;;;;;;4149329;28;19925;-56
2022/08/13 00:19:10;;;;;;;;;;;16.30;99.90;;;;;;4148771;28;20325;-56
2022/08/13 00:21:12;;;;;;;;;;;16.30;99.90;;;;;;4149357;28;20278;-55
2022/08/13 00:23:14;;;;;;;;;;;16.30;99.90;;;;;;4149474;28;19932;-55
2022/08/13 00:25:23;;;;;;;;;;;16.30;99.90;;;;;;4149416;28;19980;-57
2022/08/13 00:27:26;;;;;;;;;;;16.30;99.90;;;;;;4149252;28;19922;-56
2022/08/13 00:29:39;;;;;;;;;;;16.30;99.90;;;;;;4149284;28;20033;-56
2022/08/13 00:31:41;;;;;;;;;;;16.40;99.90;;;;;;4148902;28;19929;-57
2022/08/13 00:33:43;;;;;;;;;;;16.20;99.90;;;;;;4164182;28;19948;-56
2022/08/13 00:35:50;;;;;;;;;;;16.10;99.90;;;;;;4152024;28;20021;-56
2022/08/13 00:37:57;;;;;;;;;;;16.10;99.90;;;;;;4165211;28;19929;-57
2022/08/13 00:39:59;;;;;;;;;;;16.00;99.90;;;;;;4165540;28;20011;-56
2022/08/13 00:42:23;;;;;;;;;;;16.10;99.90;;;;;;4154456;28;19932;-56
2022/08/13 00:44:25;;;;;;;;;;;16.20;99.90;;;;;;4149045;28;20285;-57
2022/08/13 00:46:27;;;;;;;;;;;16.20;99.90;;;;;;4148822;28;20397;-55
2022/08/13 00:48:42;;;;;;;;;;;16.10;99.90;;;;;;4149091;28;20416;-57
2022/08/13 00:50:50;;;;;;;;;;;16.20;99.90;;;;;;4148642;28;19928;-56
2022/08/13 00:52:53;;;;;;;;;;;16.20;99.90;;;;;;4148671;28;20341;-57
2022/08/13 00:54:59;;;;;;;;;;;16.30;99.90;;;;;;4149316;28;20389;-55
2022/08/13 00:57:07;;;;;;;;;;;16.20;99.90;;;;;;4149016;28;19979;-57
2022/08/13 00:59:13;;;;;;;;;;;16.20;99.90;;;;;;4147715;28;20385;-55
2022/08/13 01:01:15;;;;;;;;;;;16.10;99.90;;;;;;4149031;28;19932;-57
2022/08/13 01:03:18;;;;;;;;;;;16.20;99.90;;;;;;4148554;28;19972;-55
2022/08/13 01:05:24;;;;;;;;;;;16.30;99.90;;;;;;4148511;28;19925;-56
2022/08/13 01:07:27;;;;;;;;;;;16.10;99.90;;;;;;4148496;28;20011;-56
2022/08/13 01:09:48;;;;;;;;;;;16.00;99.90;;;;;;4148658;28;19974;-55
2022/08/13 01:12:10;;;;;;;;;;;15.80;99.90;;;;;;4156554;28;19932;-56
2022/08/13 01:14:17;;;;;;;;;;;15.70;99.90;;;;;;4165106;28;19925;-55
2022/08/13 01:16:20;;;;;;;;;;;15.70;99.90;;;;;;4154566;28;19926;-57
2022/08/13 01:18:24;;;;;;;;;;;15.90;99.90;;;;;;4148325;28;19922;-55
2022/08/13 01:20:27;;;;;;;;;;;15.90;99.90;;;;;;4148514;28;19921;-56
2022/08/13 01:22:34;;;;;;;;;;;15.90;99.90;;;;;;4148310;28;20385;-56
2022/08/13 01:24:37;;;;;;;;;;;16.00;99.90;;;;;;4148331;28;19932;-55
2022/08/13 01:26:40;;;;;;;;;;;16.10;99.90;;;;;;4148356;28;19922;-56
2022/08/13 01:28:50;;;;;;;;;;;16.10;99.90;;;;;;4155153;28;19931;-57
2022/08/13 01:30:54;;;;;;;;;;;16.10;99.90;;;;;;4163693;28;20019;-55
2022/08/13 01:32:56;;;;;;;;;;;16.00;99.90;;;;;;4164468;28;20055;-55
2022/08/13 01:35:00;;;;;;;;;;;15.90;99.90;;;;;;4158311;28;20012;-55
2022/08/13 01:37:02;;;;;;;;;;;15.80;99.90;;;;;;4160763;28;19921;-55
2022/08/13 01:39:07;;;;;;;;;;;15.80;99.90;;;;;;4164425;28;19928;-55
2022/08/13 01:41:16;;;;;;;;;;;15.80;99.90;;;;;;4158629;28;19926;-55
2022/08/13 01:43:18;;;;;;;;;;;15.80;99.90;;;;;;4148007;28;19980;-55
2022/08/13 01:45:23;;;;;;;;;;;15.80;99.90;;;;;;4148049;28;19929;-55
2022/08/13 01:52:18;;;;;;;;;;;15.80;99.90;;;;;;4147982;28;20028;-56
2022/08/13 01:54:20;;;;;;;;;;;15.70;99.90;;;;;;4148097;28;19921;-56
2022/08/13 01:56:40;;;;;;;;;;;15.80;99.90;;;;;;4130248;28;19926;-55
2022/08/13 01:58:42;;;;;;;;;;;15.90;99.90;;;;;;4147940;28;19925;-56
2022/08/13 02:01:03;;;;;;;;;;;15.80;99.90;;;;;;4148107;28;19922;-55
2022/08/13 02:03:11;;;;;;;;;;;15.80;99.90;;;;;;4147949;28;19928;-56
2022/08/13 02:05:13;;;;;;;;;;;15.70;99.90;;;;;;4148155;28;19989;-57
2022/08/13 02:07:36;;;;;;;;;;;15.90;99.90;;;;;;4153101;28;20296;-56
2022/08/13 02:09:59;;;;;;;;;;;16.00;99.90;;;;;;4147607;28;19921;-56
2022/08/13 02:12:03;;;;;;;;;;;15.80;99.90;;;;;;4147884;28;19921;-55
2022/08/13 02:14:05;;;;;;;;;;;15.90;99.90;;;;;;4147653;28;20540;-55
2022/08/13 02:16:07;;;;;;;;;;;15.90;99.90;;;;;;4147864;28;19921;-55
2022/08/13 02:18:16;;;;;;;;;;;15.90;99.90;;;;;;4147715;28;19960;-55
2022/08/13 02:20:18;;;;;;;;;;;16.00;99.90;;;;;;4147574;28;19968;-55
2022/08/13 02:22:22;;;;;;;;;;;16.00;99.90;;;;;;4147549;28;19921;-56
2022/08/13 02:24:24;;;;;;;;;;;16.10;99.90;;;;;;4149387;28;19965;-56
2022/08/13 02:26:29;;;;;;;;;;;16.00;99.90;;;;;;4163716;28;19928;-56
2022/08/13 02:28:39;;;;;;;;;;;15.90;99.90;;;;;;4163111;28;19921;-54
2022/08/13 02:30:42;;;;;;;;;;;16.00;99.90;;;;;;4147528;28;19929;-56
2022/08/13 02:32:44;;;;;;;;;;;15.90;99.90;;;;;;4147587;28;19932;-55
2022/08/13 02:34:50;;;;;;;;;;;15.90;99.90;;;;;;4147461;28;19976;-56
2022/08/13 02:36:52;;;;;;;;;;;15.90;99.90;;;;;;4158876;28;19943;-56
2022/08/13 02:39:02;;;;;;;;;;;16.00;99.90;;;;;;4155057;28;19921;-55
2022/08/13 02:43:25;;;;;;;;;;;16.00;99.90;;;;;;4152734;28;19921;-56
2022/08/13 02:45:27;;;;;;;;;;;16.00;99.90;;;;;;4147312;28;19928;-56
2022/08/13 02:47:32;;;;;;;;;;;16.00;99.90;;;;;;4147464;28;20367;-55
2022/08/13 02:49:46;;;;;;;;;;;16.00;99.90;;;;;;4141437;28;19922;-55
2022/08/13 02:51:49;;;;;;;;;;;16.00;99.90;;;;;;4130979;28;20309;-56
2022/08/13 02:54:09;;;;;;;;;;;15.90;99.90;;;;;;4130868;28;20382;-56
2022/08/13 02:56:11;;;;;;;;;;;15.90;99.90;;;;;;4131068;28;20032;-55
2022/08/13 02:58:13;;;;;;;;;;;15.80;99.90;;;;;;4131067;28;19932;-56
2022/08/13 03:00:16;;;;;;;;;;;15.70;99.90;;;;;;4131481;28;20124;-56
2022/08/13 03:02:18;;;;;;;;;;;15.80;99.90;;;;;;4139423;28;19925;-55
2022/08/13 03:04:21;;;;;;;;;;;15.80;99.90;;;;;;4140296;28;19921;-56
2022/08/13 03:06:24;;;;;;;;;;;15.80;99.90;;;;;;4131292;28;19932;-55
2022/08/13 03:08:27;;;;;;;;;;;15.70;99.90;;;;;;4131161;28;19922;-57
2022/08/13 03:10:41;;;;;;;;;;;15.70;99.90;;;;;;4130915;28;19976;-55
2022/08/13 03:12:45;;;;;;;;;;;15.70;99.90;;;;;;4131061;28;20416;-55
2022/08/13 03:14:48;;;;;;;;;;;15.60;99.90;;;;;;4113538;28;19929;-55
2022/08/13 03:16:50;;;;;;;;;;;15.50;99.90;;;;;;4130887;28;19926;-56
2022/08/13 03:18:54;;;;;;;;;;;15.50;99.90;;;;;;4131160;28;19922;-56
2022/08/13 03:20:57;;;;;;;;;;;15.50;99.90;;;;;;4134716;28;19928;-56
2022/08/13 03:23:01;;;;;;;;;;;15.50;99.90;;;;;;4147022;28;20436;-55
2022/08/13 03:25:03;;;;;;;;;;;15.60;99.90;;;;;;4147044;28;19961;-54
2022/08/13 03:27:08;;;;;;;;;;;15.60;99.90;;;;;;4136835;28;19926;-54
2022/08/13 03:29:11;;;;;;;;;;;15.60;99.90;;;;;;4131069;28;19928;-55
2022/08/13 03:31:15;;;;;;;;;;;15.60;99.90;;;;;;4130663;28;19980;-55
2022/08/13 03:33:17;;;;;;;;;;;15.60;99.90;;;;;;4139911;28;19979;-55
2022/08/13 03:35:24;;;;;;;;;;;15.60;99.90;;;;;;4147257;28;19979;-55
2022/08/13 03:37:45;;;;;;;;;;;15.60;99.90;;;;;;4113396;28;19930;-55
2022/08/13 03:39:47;;;;;;;;;;;15.60;99.90;;;;;;4130610;28;19926;-54
2022/08/13 03:41:49;;;;;;;;;;;15.50;99.90;;;;;;4130745;28;19922;-55
2022/08/13 03:43:53;;;;;;;;;;;15.50;99.90;;;;;;4130956;28;19968;-55
2022/08/13 03:45:57;;;;;;;;;;;15.50;99.90;;;;;;4130826;28;19972;-55
2022/08/13 03:48:00;;;;;;;;;;;15.50;99.90;;;;;;4130723;28;19922;-55
2022/08/13 03:50:03;;;;;;;;;;;15.50;99.90;;;;;;4138284;28;20338;-55
2022/08/13 03:52:05;;;;;;;;;;;15.50;99.90;;;;;;4146695;28;19921;-54
2022/08/13 03:54:07;;;;;;;;;;;15.60;99.90;;;;;;4148380;28;19921;-55
2022/08/13 03:56:13;;;;;;;;;;;15.60;99.90;;;;;;4149763;28;20020;-55
2022/08/13 03:58:18;;;;;;;;;;;15.50;99.90;;;;;;4149696;28;19925;-55
2022/08/13 04:00:20;;;;;;;;;;;15.40;99.90;;;;;;4149838;28;19921;-55
2022/08/13 04:02:22;;;;;;;;;;;15.40;99.90;;;;;;4149499;28;19926;-55
2022/08/13 04:04:24;;;;;;;;;;;15.50;99.90;;;;;;4153018;28;19987;-55
2022/08/13 04:06:26;;;;;;;;;;;15.50;99.90;;;;;;4157948;28;20353;-54
2022/08/13 04:08:30;;;;;;;;;;;15.50;99.90;;;;;;4156115;28;19968;-55
2022/08/13 04:10:33;;;;;;;;;;;15.40;99.90;;;;;;4149485;28;19922;-56
2022/08/13 04:12:36;;;;;;;;;;;15.40;99.90;;;;;;4149450;28;19928;-56
2022/08/13 04:14:41;;;;;;;;;;;15.40;99.90;;;;;;4132046;28;19934;-55
2022/08/13 04:16:45;;;;;;;;;;;15.40;99.90;;;;;;4149690;28;20370;-55
2022/08/13 04:18:48;;;;;;;;;;;15.40;99.90;;;;;;4165547;28;19953;-55
2022/08/13 04:20:54;;;;;;;;;;;15.40;99.90;;;;;;4159167;28;19925;-54
2022/08/13 04:22:56;;;;;;;;;;;15.30;99.90;;;;;;4149694;28;19925;-56
2022/08/13 04:24:58;;;;;;;;;;;15.20;99.90;;;;;;4149035;28;19925;-55
2022/08/13 04:27:02;;;;;;;;;;;15.20;99.90;;;;;;4149178;28;20301;-56
2022/08/13 04:29:05;;;;;;;;;;;15.20;99.90;;;;;;4149306;28;19948;-56
2022/08/13 04:31:11;;;;;;;;;;;15.00;99.90;;;;;;4149192;28;19926;-56
2022/08/13 04:33:17;;;;;;;;;;;15.00;99.90;;;;;;4149235;28;20008;-56
2022/08/13 04:35:23;;;;;;;;;;;14.90;99.90;;;;;;4142167;28;20016;-55
2022/08/13 04:37:41;;;;;;;;;;;15.10;99.90;;;;;;4149046;28;19944;-55
2022/08/13 04:39:46;;;;;;;;;;;15.20;99.90;;;;;;4149016;28;19931;-55
2022/08/13 04:42:08;;;;;;;;;;;15.10;99.90;;;;;;4149199;28;19921;-56
2022/08/13 04:44:22;;;;;;;;;;;15.10;99.90;;;;;;4157817;28;20336;-55
2022/08/13 04:46:25;;;;;;;;;;;15.20;99.90;;;;;;4158138;28;20393;-55
2022/08/13 04:48:28;;;;;;;;;;;15.20;99.90;;;;;;4149086;28;20282;-55
2022/08/13 04:50:33;;;;;;;;;;;15.20;99.90;;;;;;4158474;28;19921;-55
2022/08/13 04:52:36;;;;;;;;;;;15.20;99.90;;;;;;4160005;28;19921;-56
2022/08/13 04:54:38;;;;;;;;;;;15.10;99.90;;;;;;4148530;28;19933;-55
2022/08/13 04:56:40;;;;;;;;;;;15.20;99.90;;;;;;4148617;28;19921;-55
2022/08/13 04:58:42;;;;;;;;;;;15.20;99.90;;;;;;4148920;28;19921;-55
2022/08/13 05:00:45;;;;;;;;;;;15.10;99.90;;;;;;4148468;28;19930;-55
2022/08/13 05:02:47;;;;;;;;;;;15.10;99.90;;;;;;4161825;28;19929;-55
2022/08/13 05:04:50;;;;;;;;;;;15.00;99.90;;;;;;4163859;28;20007;-55
2022/08/13 05:06:55;;;;;;;;;;;15.00;99.90;;;;;;4148583;28;19933;-55
2022/08/13 05:09:01;;;;;;;;;;;15.00;99.90;;;;;;4148615;28;20628;-55
2022/08/13 05:11:04;;;;;;;;;;;15.00;99.90;;;;;;4148438;28;20309;-54
2022/08/13 05:13:22;;;;;;;;;;;14.90;99.90;;;;;;4150939;28;20278;-56
2022/08/13 05:15:24;;;;;;;;;;;15.00;99.90;;;;;;4164846;28;19925;-56
2022/08/13 05:17:43;;;;;;;;;;;15.00;99.90;;;;;;4162574;28;19932;-55
2022/08/13 05:19:47;;;;;;;;;;;14.90;99.90;;;;;;4148662;28;19959;-55
2022/08/13 05:21:51;;;;;;;;;;;14.90;99.90;;;;;;4148153;28;20401;-54
2022/08/13 05:24:00;;;;;;;;;;;14.90;99.90;;;;;;4148535;28;19945;-56
2022/08/13 05:26:24;;;;;;;;;;;14.80;99.90;;;;;;4153594;28;20108;-55
2022/08/13 05:28:39;;;;;;;;;;;14.70;99.90;;;;;;4148348;28;19956;-55
2022/08/13 05:30:41;;;;;;;;;;;14.70;99.90;;;;;;4148642;28;19925;-55
2022/08/13 05:32:42;;;;;;;;;;;14.70;99.90;;;;;;4159449;28;19979;-55
2022/08/13 05:34:51;;;;;;;;;;;14.70;99.90;;;;;;4158436;28;19990;-55
2022/08/13 05:36:56;;;;;;;;;;;14.80;99.90;;;;;;4163895;28;19988;-55
2022/08/13 05:39:18;;;;;;;;;;;14.80;99.90;;;;;;4164995;28;20419;-56
2022/08/13 05:41:22;;;;;;;;;;;15.00;99.90;;;;;;4157002;28;20052;-55
2022/08/13 05:43:25;;;;;;;;;;;15.00;99.90;;;;;;4145249;28;19929;-55
2022/08/13 05:45:27;;;;;;;;;;;15.00;99.90;;;;;;4148312;28;19922;-54
2022/08/13 05:47:29;;;;;;;;;;;15.10;99.90;;;;;;4158444;28;19921;-54
2022/08/13 05:49:39;;;;;;;;;;;15.10;99.90;;;;;;4156617;28;19925;-55
2022/08/13 05:51:54;;;;;;;;;;;15.10;99.90;;;;;;4131535;28;19925;-55
2022/08/13 05:54:18;;;;;;;;;;;15.10;99.90;;;;;;4131741;28;20398;-55
2022/08/13 05:56:40;;;;;;;;;;;15.10;99.90;;;;;;4131157;28;20432;-55
2022/08/13 05:58:42;;;;;;;;;;;15.30;99.90;;;;;;4131611;28;20008;-56
2022/08/13 06:03:24;;;;;;;;;;;15.60;99.90;;;;;;4131464;28;19922;-55
2022/08/13 06:05:46;;;;;;;;;;;15.90;99.90;;;;;;4131818;28;20465;-57
2022/08/13 06:07:48;;;;;;;;;;;16.10;99.90;;;;;;4131408;28;19922;-57
2022/08/13 06:09:50;;;;;;;;;;;16.10;99.90;;;;;;4136561;28;20015;-57
2022/08/13 06:11:53;;;;;;;;;;;16.20;99.90;;;;;;4147457;28;19921;-56
2022/08/13 06:14:20;;;;;;;;;;;16.50;99.90;;;;;;4147903;28;20376;-57
2022/08/13 06:16:24;;;;;;;;;;;16.60;99.90;;;;;;4142587;28;19921;-58
2022/08/13 06:18:48;;;;;;;;;;;16.70;99.90;;;;;;4138902;28;20308;-56
2022/08/13 06:20:53;;;;;;;;;;;16.90;99.90;;;;;;4147705;28;20274;-57
2022/08/13 06:22:59;;;;;;;;;;;17.10;99.90;;;;;;4133650;28;19972;-57
2022/08/13 06:25:02;;;;;;;;;;;17.30;99.90;;;;;;4131190;28;19921;-57
2022/08/13 06:27:05;;;;;;;;;;;17.60;99.90;;;;;;4131342;28;19929;-57
2022/08/13 06:29:16;;;;;;;;;;;17.80;99.90;;;;;;4131322;28;19929;-57
2022/08/13 06:31:25;;;;;;;;;;;17.80;99.90;;;;;;4132252;28;19922;-57
2022/08/13 06:33:28;;;;;;;;;;;17.80;99.90;;;;;;4147333;28;19928;-57
2022/08/13 06:35:54;;;;;;;;;;;18.20;99.90;;;;;;4144159;28;19928;-58
2022/08/13 06:37:58;;;;;;;;;;;18.20;99.90;;;;;;4143160;28;20017;-57
2022/08/13 06:40:00;;;;;;;;;;;18.60;99.90;;;;;;4143542;28;19925;-58
2022/08/13 06:42:03;;;;;;;;;;;18.80;99.90;;;;;;4142947;28;20011;-58
2022/08/13 06:44:05;;;;;;;;;;;19.00;99.90;;;;;;4142473;28;20012;-58
2022/08/13 06:46:08;;;;;;;;;;;19.20;99.90;;;;;;4143441;28;19921;-59
2022/08/13 06:48:11;;;;;;;;;;;19.30;99.90;;;;;;4142424;28;20419;-58
2022/08/13 06:50:17;;;;;;;;;;;19.60;99.90;;;;;;4156369;28;19933;-58
2022/08/13 06:52:19;;;;;;;;;;;19.60;99.90;;;;;;4154054;28;19928;-58
2022/08/13 06:54:22;;;;;;;;;;;19.80;99.90;;;;;;4153716;28;20336;-58
2022/08/13 06:56:31;;;;;;;;;;;19.80;99.90;;;;;;4152779;28;19925;-58
2022/08/13 06:58:35;;;;;;;;;;;19.90;99.90;;;;;;4139180;28;19932;-58
2022/08/13 07:00:38;;;;;;;;;;;20.00;99.90;;;;;;4160574;28;19948;-58
2022/08/13 07:02:42;;;;;;;;;;;20.20;99.90;;;;;;4173504;28;19925;-59
2022/08/13 07:04:48;;;;;;;;;;;20.20;99.90;;;;;;4147782;28;20011;-58
2022/08/13 07:06:52;;;;;;;;;;;20.40;99.90;;;;;;4163089;28;20016;-58
2022/08/13 07:08:56;;;;;;;;;;;20.50;99.90;;;;;;4163491;28;19925;-58
2022/08/13 07:13:18;;;;;;;;;;;20.60;99.90;;;;;;4171273;28;19964;-57
2022/08/13 07:15:24;;;;;;;;;;;20.70;99.90;;;;;;4162255;28;20401;-57
2022/08/13 07:17:41;;;;;;;;;;;20.70;99.90;;;;;;4152911;28;19925;-58
2022/08/13 07:19:45;;;;;;;;;;;21.00;99.90;;;;;;4155881;28;19928;-57
2022/08/13 07:22:08;;;;;;;;;;;21.30;99.90;;;;;;4161014;28;19925;-58
2022/08/13 07:24:11;;;;;;;;;;;21.60;99.90;;;;;;4147026;28;19929;-58
2022/08/13 07:26:36;;;;;;;;;;;21.90;99.90;;;;;;4153160;28;19920;-57
2022/08/13 07:28:45;;;;;;;;;;;21.80;99.90;;;;;;4158979;28;19921;-57
2022/08/13 07:30:52;;;;;;;;;;;21.70;99.90;;;;;;4163774;28;19937;-58
2022/08/13 07:32:55;;;;;;;;;;;21.60;99.90;;;;;;4167182;28;20031;-58
2022/08/13 07:34:58;;;;;;;;;;;21.90;99.90;;;;;;4180209;28;19921;-58
2022/08/13 07:37:03;;;;;;;;;;;22.10;99.90;;;;;;4165948;28;20015;-58
2022/08/13 07:39:07;;;;;;;;;;;22.20;99.90;;;;;;4166334;28;19931;-58
2022/08/13 07:41:10;;;;;;;;;;;22.30;99.90;;;;;;4165070;28;19953;-58
2022/08/13 07:43:12;;;;;;;;;;;22.30;99.90;;;;;;4153733;28;20030;-57
2022/08/13 07:45:23;;;;;;;;;;;22.30;99.90;;;;;;4161155;28;19980;-58
2022/08/13 07:47:50;;;;;;;;;;;22.40;99.90;;;;;;4162647;28;20452;-58
2022/08/13 07:50:14;;;;;;;;;;;22.80;99.90;;;;;;4128815;28;20279;-58
2022/08/13 07:52:16;;;;;;;;;;;23.10;99.90;;;;;;4128992;28;20072;-58
2022/08/13 07:54:19;;;;;;;;;;;23.20;99.90;;;;;;4131538;28;19925;-57
2022/08/13 07:56:25;;;;;;;;;;;23.40;99.90;;;;;;4131667;28;19972;-57
2022/08/13 07:58:30;;;;;;;;;;;23.60;99.90;;;;;;4131048;28;20012;-57
2022/08/13 08:00:32;;;;;;;;;;;23.70;99.90;;;;;;4129788;28;19991;-58
2022/08/13 08:02:33;;;;;;;;;;;23.80;99.90;;;;;;4129454;28;20453;-57
2022/08/13 08:04:37;;;;;;;;;;;23.80;99.90;;;;;;4131392;28;20493;-57
2022/08/13 08:06:41;;;;;;;;;;;24.20;99.90;;;;;;4130880;28;19922;-57
2022/08/13 08:08:44;;;;;;;;;;;24.50;99.90;;;;;;4147368;28;19932;-57
2022/08/13 08:10:46;;;;;;;;;;;24.60;99.90;;;;;;4161508;28;20352;-58
2022/08/13 08:12:48;;;;;;;;;;;24.60;99.90;;;;;;4164361;28;19928;-57
2022/08/13 08:14:54;;;;;;;;;;;24.50;99.90;;;;;;4165146;28;20025;-57
2022/08/13 08:17:00;;;;;;;;;;;24.60;99.90;;;;;;4164944;28;19931;-58
2022/08/13 08:19:12;;;;;;;;;;;25.00;99.90;;;;;;4165697;28;19952;-57
2022/08/13 08:21:35;;;;;;;;;;;25.10;99.90;;;;;;4154928;28;19921;-58
2022/08/13 08:24:04;;;;;;;;;;;25.20;99.90;;;;;;4162844;28;19927;-57
2022/08/13 08:26:09;;;;;;;;;;;25.30;99.90;;;;;;4161844;28;20357;-57
2022/08/13 08:28:18;;;;;;;;;;;25.30;99.90;;;;;;4167749;28;19987;-57
2022/08/13 08:30:37;;;;;;;;;;;25.30;99.90;;;;;;4164905;28;20008;-59
2022/08/13 08:32:53;;;;;;;;;;;25.40;99.90;;;;;;4157776;28;19956;-57
2022/08/13 08:34:56;;;;;;;;;;;25.50;99.90;;;;;;4149168;28;19973;-59
2022/08/13 08:36:58;;;;;;;;;;;25.90;99.90;;;;;;4159719;28;19921;-57
2022/08/13 08:43:46;;;;;;;;;;;25.70;99.90;;;;;;4162549;28;19975;-58
2022/08/13 08:45:52;;;;;;;;;;;25.90;99.90;;;;;;4168863;28;20012;-58
2022/08/13 08:48:14;;;;;;;;;;;25.90;99.90;;;;;;4169480;28;19920;-57
2022/08/13 08:50:17;;;;;;;;;;;25.90;99.90;;;;;;4160592;28;19929;-58
2022/08/13 08:54:49;;;;;;;;;;;26.40;99.90;;;;;;4145410;28;19976;-58
2022/08/13 08:59:48;;;;;;;;;;;26.80;99.90;;;;;;4145768;28;20320;-57
2022/08/13 09:01:55;;;;;;;;;;;26.70;99.50;;;;;;4131040;28;20341;-58
2022/08/13 09:04:05;;;;;;;;;;;26.90;99.90;;;;;;4142752;28;19921;-59
2022/08/13 09:06:08;;;;;;;;;;;27.30;99.70;;;;;;4149637;28;19932;-58
2022/08/13 09:08:18;;;;;;;;;;;27.60;99.60;;;;;;4155510;28;19921;-58
2022/08/13 09:10:22;;;;;;;;;;;27.60;98.20;;;;;;4148591;28;19936;-57
2022/08/13 09:12:29;;;;;;;;;;;27.70;97.00;;;;;;4148579;28;19932;-59
2022/08/13 09:14:31;;;;;;;;;;;27.60;97.00;;;;;;4140156;28;19925;-58
2022/08/13 09:16:38;;;;;;;;;;;27.40;97.40;;;;;;4132608;28;19921;-58
2022/08/13 09:18:40;;;;;;;;;;;27.10;96.50;;;;;;4148659;28;19921;-58
2022/08/13 09:20:42;;;;;;;;;;;26.90;96.10;;;;;;4141675;28;19922;-58
2022/08/13 09:22:47;;;;;;;;;;;27.10;96.50;;;;;;4132267;28;19925;-58
2022/08/13 09:24:58;;;;;;;;;;;26.90;96.30;;;;;;4147334;28;19975;-58
2022/08/13 09:27:02;;;;;;;;;;;26.50;97.90;;;;;;4141718;28;20374;-58
2022/08/13 09:29:04;;;;;;;;;;;27.10;97.90;;;;;;4123606;28;20469;-57
2022/08/13 09:34:03;;;;;;;;;;;27.70;97.00;;;;;;4152141;28;20401;-58
2022/08/13 09:36:11;;;;;;;;;;;27.90;96.40;;;;;;4149292;28;19921;-58
2022/08/13 09:38:20;;;;;;;;;;;27.90;96.90;;;;;;4132623;28;19969;-58
2022/08/13 09:40:24;;;;;;;;;;;27.90;97.00;;;;;;4146315;28;19925;-57
2022/08/13 09:42:46;;;;;;;;;;;28.30;97.10;;;;;;4131966;28;19960;-58
2022/08/13 09:44:49;;;;;;;;;;;28.30;95.30;;;;;;4147297;28;20024;-58
2022/08/13 09:46:51;;;;;;;;;;;28.10;94.80;;;;;;4135347;28;19925;-58
2022/08/13 09:48:55;;;;;;;;;;;28.00;95.40;;;;;;4131415;28;20024;-57
2022/08/13 09:51:02;;;;;;;;;;;28.10;95.60;;;;;;4146990;28;20382;-57
2022/08/13 09:53:07;;;;;;;;;;;27.90;95.60;;;;;;4147745;28;19972;-58
2022/08/13 09:55:09;;;;;;;;;;;27.90;95.30;;;;;;4147588;28;20507;-58
2022/08/13 09:57:12;;;;;;;;;;;28.00;95.10;;;;;;4148177;28;19968;-58
2022/08/13 09:59:15;;;;;;;;;;;27.80;93.50;;;;;;4147735;28;20313;-58
2022/08/13 10:01:34;;;;;;;;;;;27.80;95.80;;;;;;4147879;28;19925;-57
2022/08/13 10:03:56;;;;;;;;;;;27.40;95.80;;;;;;4153156;28;20332;-58
2022/08/13 10:05:58;;;;;;;;;;;27.40;95.30;;;;;;4147062;28;19925;-58
2022/08/13 10:08:02;;;;;;;;;;;26.90;94.10;;;;;;4147655;28;19972;-58
2022/08/13 10:10:04;;;;;;;;;;;26.90;93.40;;;;;;4162640;28;19925;-57
2022/08/13 10:12:26;;;;;;;;;;;27.10;94.50;;;;;;4152650;28;20369;-58
2022/08/13 10:14:28;;;;;;;;;;;27.10;94.70;;;;;;4147912;28;19964;-58
2022/08/13 10:16:29;;;;;;;;;;;27.20;94.60;;;;;;4146694;28;20459;-57
2022/08/13 10:18:31;;;;;;;;;;;27.10;94.70;;;;;;4141670;28;19976;-59
2022/08/13 10:20:40;;;;;;;;;;;26.80;95.30;;;;;;4147612;28;20377;-57
2022/08/13 10:22:43;;;;;;;;;;;26.70;94.10;;;;;;4147771;28;19960;-57
2022/08/13 10:24:45;;;;;;;;;;;26.60;94.40;;;;;;4147650;28;19925;-57
2022/08/13 10:26:47;;;;;;;;;;;27.00;93.20;;;;;;4150180;28;19935;-58
2022/08/13 10:28:50;;;;;;;;;;;27.00;93.70;;;;;;4151618;28;19925;-58
2022/08/13 10:30:54;;;;;;;;;;;26.80;92.90;;;;;;4133448;28;19925;-59
2022/08/13 10:33:01;;;;;;;;;;;27.00;93.50;;;;;;4147623;28;19968;-58
2022/08/13 10:35:04;;;;;;;;;;;27.20;93.00;;;;;;4150408;28;19933;-57
2022/08/13 10:37:06;;;;;;;;;;;27.50;93.00;;;;;;4155353;28;19925;-58
2022/08/13 10:39:10;;;;;;;;;;;27.50;93.30;;;;;;4151186;28;19956;-57
2022/08/13 10:41:13;;;;;;;;;;;27.70;92.70;;;;;;4147683;28;19925;-58
2022/08/13 10:43:16;;;;;;;;;;;27.60;94.00;;;;;;4147426;28;19925;-58
2022/08/13 10:45:26;;;;;;;;;;;27.90;93.30;;;;;;4147577;28;19921;-58
2022/08/13 10:47:28;;;;;;;;;;;27.90;93.00;;;;;;4147055;28;20149;-59
2022/08/13 10:49:38;;;;;;;;;;;27.80;93.20;;;;;;4147209;28;20020;-59
2022/08/13 10:51:40;;;;;;;;;;;27.80;92.70;;;;;;4147169;28;20289;-59
2022/08/13 10:53:55;;;;;;;;;;;27.80;91.90;;;;;;4147357;28;19925;-58
2022/08/13 10:55:58;;;;;;;;;;;27.50;91.70;;;;;;4147322;28;19932;-58
2022/08/13 10:58:12;;;;;;;;;;;27.60;91.30;;;;;;4147757;28;20016;-59
2022/08/13 11:00:34;;;;;;;;;;;27.80;90.80;;;;;;4131303;28;20402;-58
2022/08/13 11:02:37;;;;;;;;;;;28.30;91.90;;;;;;4147580;28;19921;-58
2022/08/13 11:04:39;;;;;;;;;;;28.70;90.70;;;;;;4150781;28;20389;-59
2022/08/13 11:06:52;;;;;;;;;;;28.60;90.10;;;;;;4150990;28;20324;-59
2022/08/13 11:08:59;;;;;;;;;;;28.60;84.90;;;;;;4154527;28;20286;-58
2022/08/13 11:11:01;;;;;;;;;;;28.70;87.20;;;;;;4155764;28;19925;-59
2022/08/13 11:13:23;;;;;;;;;;;29.00;84.50;;;;;;4150495;28;19926;-59
2022/08/13 11:15:25;;;;;;;;;;;29.20;85.40;;;;;;4150647;28;19963;-59
2022/08/13 11:17:27;;;;;;;;;;;28.80;83.10;;;;;;4150730;28;20287;-60
2022/08/13 11:19:49;;;;;;;;;;;28.80;86.90;;;;;;4150118;28;19932;-59
2022/08/13 11:21:53;;;;;;;;;;;29.50;89.50;;;;;;4150368;28;19972;-60
2022/08/13 11:24:15;;;;;;;;;;;29.60;81.20;;;;;;4150434;28;19981;-59
2022/08/13 11:26:17;;;;;;;;;;;29.70;83.60;;;;;;4148956;28;19929;-58
2022/08/13 11:28:24;;;;;;;;;;;29.70;79.50;;;;;;4158503;28;19975;-59
2022/08/13 11:30:26;;;;;;;;;;;29.00;79.20;;;;;;4153096;28;20261;-58
2022/08/13 11:32:32;;;;;;;;;;;28.60;81.40;;;;;;4149927;28;19929;-58
2022/08/13 11:34:34;;;;;;;;;;;28.30;81.00;;;;;;4150038;28;20397;-58
2022/08/13 11:36:36;;;;;;;;;;;27.90;82.80;;;;;;4132049;28;19922;-59
2022/08/13 11:38:38;;;;;;;;;;;28.00;82.20;;;;;;4150076;28;19926;-59
2022/08/13 11:40:48;;;;;;;;;;;28.40;80.00;;;;;;4149885;28;20348;-58
2022/08/13 11:42:53;;;;;;;;;;;28.50;82.10;;;;;;4150128;28;20262;-59
2022/08/13 11:45:07;;;;;;;;;;;28.60;80.40;;;;;;4150312;28;19929;-59
2022/08/13 11:47:09;;;;;;;;;;;28.90;81.00;;;;;;4149753;28;19922;-58
2022/08/13 11:49:20;;;;;;;;;;;29.40;81.90;;;;;;4149598;28;20354;-59
2022/08/13 11:51:21;;;;;;;;;;;29.90;80.20;;;;;;4149668;28;20408;-59
2022/08/13 11:53:24;;;;;;;;;;;29.50;82.40;;;;;;4146051;28;20358;-59
2022/08/13 11:55:25;;;;;;;;;;;29.40;83.80;;;;;;4133888;28;19929;-60
2022/08/13 11:57:29;;;;;;;;;;;29.10;81.50;;;;;;4133445;28;20382;-59
2022/08/13 11:59:46;;;;;;;;;;;28.80;78.80;;;;;;4116045;28;20437;-59
2022/08/13 12:01:55;;;;;;;;;;;28.80;83.90;;;;;;4133600;28;19948;-58
2022/08/13 12:03:57;;;;;;;;;;;29.00;76.80;;;;;;4133727;28;20008;-60
2022/08/13 12:06:17;;;;;;;;;;;29.20;80.20;;;;;;4120897;28;20036;-58
2022/08/13 12:08:20;;;;;;;;;;;29.20;77.20;;;;;;4151257;28;19927;-58
2022/08/13 12:10:42;;;;;;;;;;;29.40;78.80;;;;;;4153451;28;19922;-58
2022/08/13 12:12:52;;;;;;;;;;;29.60;78.10;;;;;;4145074;28;19956;-59
2022/08/13 12:14:54;;;;;;;;;;;29.90;75.90;;;;;;4148201;28;19925;-59
2022/08/13 12:16:57;;;;;;;;;;;29.80;77.50;;;;;;4147558;28;20401;-60
2022/08/13 12:18:58;;;;;;;;;;;29.40;76.70;;;;;;4158681;28;19925;-58
2022/08/13 12:21:20;;;;;;;;;;;29.60;77.70;;;;;;4138617;28;19926;-58
2022/08/13 12:23:23;;;;;;;;;;;29.00;76.00;;;;;;4133145;28;19973;-59
2022/08/13 12:25:32;;;;;;;;;;;28.80;75.90;;;;;;4133234;28;19925;-58
2022/08/13 12:28:13;;;;;;;;;;;28.80;76.40;;;;;;4133398;28;20277;-59
2022/08/13 12:30:23;;;;;;;;;;;28.90;77.00;;;;;;4156283;28;19925;-59
2022/08/13 12:32:24;;;;;;;;;;;28.90;75.00;;;;;;4155671;28;19932;-59
2022/08/13 12:34:26;;;;;;;;;;;29.20;78.30;;;;;;4148814;28;19921;-60
2022/08/13 12:36:31;;;;;;;;;;;29.20;76.00;;;;;;4141466;28;19925;-59
2022/08/13 12:38:34;;;;;;;;;;;29.40;76.80;;;;;;4140596;28;20298;-60
2022/08/13 12:40:36;;;;;;;;;;;29.20;74.90;;;;;;4139087;28;19922;-59
2022/08/13 12:42:38;;;;;;;;;;;29.10;75.20;;;;;;4139494;28;19936;-59